sensor_id;sensor_type;location;lat;lon;timestamp;temperature;humidity
74617;DHT22;63123;50.906;4.198;2023-07-13T00:01:30;21.20;64.60
74617;DHT22;63123;50.906;4.198;2023-07-13T00:03:57;21.20;64.60
74617;DHT22;63123;50.906;4.198;2023-07-13T00:06:23;21.20;64.60
74617;DHT22;63123;50.906;4.198;2023-07-13T00:08:49;21.20;64.70
74617;DHT22;63123;50.906;4.198;2023-07-13T00:11:15;21.20;65.30
74617;DHT22;63123;50.906;4.198;2023-07-13T00:13:42;21.20;64.70
74617;DHT22;63123;50.906;4.198;2023-07-13T00:16:09;21.20;64.70
74617;DHT22;63123;50.906;4.198;2023-07-13T00:18:35;21.20;64.70
74617;DHT22;63123;50.906;4.198;2023-07-13T00:21:01;21.20;64.70
74617;DHT22;63123;50.906;4.198;2023-07-13T00:23:32;21.20;64.60
74617;DHT22;63123;50.906;4.198;2023-07-13T00:25:59;21.20;64.70
74617;DHT22;63123;50.906;4.198;2023-07-13T00:28:25;21.20;64.70
74617;DHT22;63123;50.906;4.198;2023-07-13T00:30:51;21.20;64.70
74617;DHT22;63123;50.906;4.198;2023-07-13T00:33:16;21.20;64.70
74617;DHT22;63123;50.906;4.198;2023-07-13T00:35:42;21.20;64.70
74617;DHT22;63123;50.906;4.198;2023-07-13T00:38:09;21.20;64.80
74617;DHT22;63123;50.906;4.198;2023-07-13T00:40:35;21.20;64.70
74617;DHT22;63123;50.906;4.198;2023-07-13T00:43:00;21.20;64.80
74617;DHT22;63123;50.906;4.198;2023-07-13T00:47:52;21.20;64.80
74617;DHT22;63123;50.906;4.198;2023-07-13T00:50:18;21.20;64.80
74617;DHT22;63123;50.906;4.198;2023-07-13T00:52:49;21.20;64.70
74617;DHT22;63123;50.906;4.198;2023-07-13T00:55:17;21.20;64.80
74617;DHT22;63123;50.906;4.198;2023-07-13T00:57:44;21.20;64.80
74617;DHT22;63123;50.906;4.198;2023-07-13T01:00:11;21.20;64.80
74617;DHT22;63123;50.906;4.198;2023-07-13T01:02:45;21.20;64.80
74617;DHT22;63123;50.906;4.198;2023-07-13T01:05:13;21.20;64.80
74617;DHT22;63123;50.906;4.198;2023-07-13T01:07:43;21.20;64.80
74617;DHT22;63123;50.906;4.198;2023-07-13T01:10:10;21.20;64.80
74617;DHT22;63123;50.906;4.198;2023-07-13T01:12:36;21.20;64.80
74617;DHT22;63123;50.906;4.198;2023-07-13T01:15:03;21.20;64.80
74617;DHT22;63123;50.906;4.198;2023-07-13T01:17:30;21.20;64.80
74617;DHT22;63123;50.906;4.198;2023-07-13T01:19:56;21.20;64.80
74617;DHT22;63123;50.906;4.198;2023-07-13T01:22:22;21.20;64.80
74617;DHT22;63123;50.906;4.198;2023-07-13T01:24:52;21.20;64.80
74617;DHT22;63123;50.906;4.198;2023-07-13T01:27:22;21.20;64.80
74617;DHT22;63123;50.906;4.198;2023-07-13T01:29:50;21.20;64.80
74617;DHT22;63123;50.906;4.198;2023-07-13T01:32:20;21.20;64.90
74617;DHT22;63123;50.906;4.198;2023-07-13T01:34:47;21.20;64.80
74617;DHT22;63123;50.906;4.198;2023-07-13T01:37:12;21.20;64.90
74617;DHT22;63123;50.906;4.198;2023-07-13T01:39:38;21.20;64.90
74617;DHT22;63123;50.906;4.198;2023-07-13T01:42:04;21.20;64.90
74617;DHT22;63123;50.906;4.198;2023-07-13T01:44:30;21.20;65.40
74617;DHT22;63123;50.906;4.198;2023-07-13T01:46:57;21.20;64.90
74617;DHT22;63123;50.906;4.198;2023-07-13T01:49:22;21.20;64.90
74617;DHT22;63123;50.906;4.198;2023-07-13T01:51:48;21.20;64.90
74617;DHT22;63123;50.906;4.198;2023-07-13T01:54:14;21.20;64.90
74617;DHT22;63123;50.906;4.198;2023-07-13T01:56:39;21.20;64.90
74617;DHT22;63123;50.906;4.198;2023-07-13T01:59:07;21.20;64.90
74617;DHT22;63123;50.906;4.198;2023-07-13T02:01:33;21.20;64.90
74617;DHT22;63123;50.906;4.198;2023-07-13T02:03:58;21.20;64.90
74617;DHT22;63123;50.906;4.198;2023-07-13T02:06:24;21.20;64.90
74617;DHT22;63123;50.906;4.198;2023-07-13T02:08:49;21.20;65.00
74617;DHT22;63123;50.906;4.198;2023-07-13T02:11:15;21.20;64.90
74617;DHT22;63123;50.906;4.198;2023-07-13T02:13:40;21.20;65.00
74617;DHT22;63123;50.906;4.198;2023-07-13T02:16:06;21.20;65.00
74617;DHT22;63123;50.906;4.198;2023-07-13T02:18:32;21.20;64.90
74617;DHT22;63123;50.906;4.198;2023-07-13T02:20:57;21.20;65.00
74617;DHT22;63123;50.906;4.198;2023-07-13T02:23:23;21.20;65.00
74617;DHT22;63123;50.906;4.198;2023-07-13T02:25:49;21.20;65.00
74617;DHT22;63123;50.906;4.198;2023-07-13T02:28:15;21.20;65.00
74617;DHT22;63123;50.906;4.198;2023-07-13T02:30:40;21.20;65.00
74617;DHT22;63123;50.906;4.198;2023-07-13T02:33:06;21.20;65.00
74617;DHT22;63123;50.906;4.198;2023-07-13T02:35:31;21.20;64.90
74617;DHT22;63123;50.906;4.198;2023-07-13T02:37:57;21.20;65.00
74617;DHT22;63123;50.906;4.198;2023-07-13T02:40:23;21.20;65.00
74617;DHT22;63123;50.906;4.198;2023-07-13T02:42:49;21.20;65.00
74617;DHT22;63123;50.906;4.198;2023-07-13T02:45:14;21.20;65.00
74617;DHT22;63123;50.906;4.198;2023-07-13T02:47:41;21.20;65.00
74617;DHT22;63123;50.906;4.198;2023-07-13T02:50:08;21.20;65.00
74617;DHT22;63123;50.906;4.198;2023-07-13T02:52:33;21.20;65.00
74617;DHT22;63123;50.906;4.198;2023-07-13T02:54:59;21.20;65.60
74617;DHT22;63123;50.906;4.198;2023-07-13T02:57:25;21.20;65.00
74617;DHT22;63123;50.906;4.198;2023-07-13T02:59:50;21.20;65.00
74617;DHT22;63123;50.906;4.198;2023-07-13T03:02:16;21.20;65.00
74617;DHT22;63123;50.906;4.198;2023-07-13T03:04:42;21.20;65.00
74617;DHT22;63123;50.906;4.198;2023-07-13T03:07:07;21.20;65.00
74617;DHT22;63123;50.906;4.198;2023-07-13T03:09:34;21.20;65.00
74617;DHT22;63123;50.906;4.198;2023-07-13T03:12:00;21.20;65.60
74617;DHT22;63123;50.906;4.198;2023-07-13T03:14:26;21.20;65.00
74617;DHT22;63123;50.906;4.198;2023-07-13T03:16:52;21.20;65.00
74617;DHT22;63123;50.906;4.198;2023-07-13T03:19:18;21.20;65.10
74617;DHT22;63123;50.906;4.198;2023-07-13T03:21:44;21.20;65.00
74617;DHT22;63123;50.906;4.198;2023-07-13T03:24:10;21.20;65.00
74617;DHT22;63123;50.906;4.198;2023-07-13T03:26:35;21.20;65.00
74617;DHT22;63123;50.906;4.198;2023-07-13T03:29:01;21.20;65.00
74617;DHT22;63123;50.906;4.198;2023-07-13T03:31:32;21.20;65.10
74617;DHT22;63123;50.906;4.198;2023-07-13T03:33:58;21.20;65.00
74617;DHT22;63123;50.906;4.198;2023-07-13T03:36:26;21.20;65.00
74617;DHT22;63123;50.906;4.198;2023-07-13T03:38:54;21.20;65.00
74617;DHT22;63123;50.906;4.198;2023-07-13T03:41:21;21.20;65.00
74617;DHT22;63123;50.906;4.198;2023-07-13T03:43:47;21.20;65.00
74617;DHT22;63123;50.906;4.198;2023-07-13T03:46:14;21.20;65.00
74617;DHT22;63123;50.906;4.198;2023-07-13T03:48:41;21.20;65.00
74617;DHT22;63123;50.906;4.198;2023-07-13T03:51:08;21.20;65.10
74617;DHT22;63123;50.906;4.198;2023-07-13T03:53:37;21.20;65.10
74617;DHT22;63123;50.906;4.198;2023-07-13T03:56:03;21.20;65.10
74617;DHT22;63123;50.906;4.198;2023-07-13T03:58:37;21.20;65.10
74617;DHT22;63123;50.906;4.198;2023-07-13T04:01:04;21.20;65.10
74617;DHT22;63123;50.906;4.198;2023-07-13T04:03:31;21.20;65.10
74617;DHT22;63123;50.906;4.198;2023-07-13T04:05:59;21.20;65.10
74617;DHT22;63123;50.906;4.198;2023-07-13T04:08:30;21.20;65.10
74617;DHT22;63123;50.906;4.198;2023-07-13T04:10:57;21.20;65.10
74617;DHT22;63123;50.906;4.198;2023-07-13T04:13:23;21.20;65.10
74617;DHT22;63123;50.906;4.198;2023-07-13T04:15:49;21.20;65.10
74617;DHT22;63123;50.906;4.198;2023-07-13T04:18:15;21.20;65.10
74617;DHT22;63123;50.906;4.198;2023-07-13T04:20:41;21.20;65.10
74617;DHT22;63123;50.906;4.198;2023-07-13T04:23:07;21.20;65.10
74617;DHT22;63123;50.906;4.198;2023-07-13T04:25:32;21.20;65.10
74617;DHT22;63123;50.906;4.198;2023-07-13T04:27:58;21.20;65.10
74617;DHT22;63123;50.906;4.198;2023-07-13T04:30:24;21.20;65.20
74617;DHT22;63123;50.906;4.198;2023-07-13T04:32:52;21.20;65.10
74617;DHT22;63123;50.906;4.198;2023-07-13T04:35:19;21.20;65.10
74617;DHT22;63123;50.906;4.198;2023-07-13T04:37:49;21.20;65.20
74617;DHT22;63123;50.906;4.198;2023-07-13T04:40:19;21.20;65.20
74617;DHT22;63123;50.906;4.198;2023-07-13T04:42:46;21.20;65.20
74617;DHT22;63123;50.906;4.198;2023-07-13T04:45:13;21.20;65.10
74617;DHT22;63123;50.906;4.198;2023-07-13T04:47:39;21.20;65.10
74617;DHT22;63123;50.906;4.198;2023-07-13T04:50:05;21.20;65.10
74617;DHT22;63123;50.906;4.198;2023-07-13T04:52:31;21.20;65.10
74617;DHT22;63123;50.906;4.198;2023-07-13T04:54:58;21.20;65.20
74617;DHT22;63123;50.906;4.198;2023-07-13T04:57:24;21.20;65.10
74617;DHT22;63123;50.906;4.198;2023-07-13T04:59:50;21.20;65.20
74617;DHT22;63123;50.906;4.198;2023-07-13T05:02:16;21.20;65.10
74617;DHT22;63123;50.906;4.198;2023-07-13T05:04:41;21.20;65.20
74617;DHT22;63123;50.906;4.198;2023-07-13T05:07:07;21.20;65.10
74617;DHT22;63123;50.906;4.198;2023-07-13T05:09:32;21.20;65.20
74617;DHT22;63123;50.906;4.198;2023-07-13T05:11:58;21.20;65.10
74617;DHT22;63123;50.906;4.198;2023-07-13T05:14:24;21.20;65.10
74617;DHT22;63123;50.906;4.198;2023-07-13T05:16:49;21.20;65.20
74617;DHT22;63123;50.906;4.198;2023-07-13T05:19:15;21.20;65.20
74617;DHT22;63123;50.906;4.198;2023-07-13T05:21:40;21.20;65.20
74617;DHT22;63123;50.906;4.198;2023-07-13T05:24:06;21.20;65.10
74617;DHT22;63123;50.906;4.198;2023-07-13T05:26:32;21.20;65.20
74617;DHT22;63123;50.906;4.198;2023-07-13T05:28:58;21.20;65.20
74617;DHT22;63123;50.906;4.198;2023-07-13T05:31:23;21.20;65.20
74617;DHT22;63123;50.906;4.198;2023-07-13T05:33:49;21.20;65.20
74617;DHT22;63123;50.906;4.198;2023-07-13T05:36:15;21.20;65.20
74617;DHT22;63123;50.906;4.198;2023-07-13T05:38:40;21.20;65.20
74617;DHT22;63123;50.906;4.198;2023-07-13T05:41:06;21.20;65.20
74617;DHT22;63123;50.906;4.198;2023-07-13T05:43:32;21.20;65.20
74617;DHT22;63123;50.906;4.198;2023-07-13T05:45:58;21.20;65.20
74617;DHT22;63123;50.906;4.198;2023-07-13T05:48:24;21.20;65.20
74617;DHT22;63123;50.906;4.198;2023-07-13T05:50:49;21.20;65.20
74617;DHT22;63123;50.906;4.198;2023-07-13T05:53:15;21.20;65.20
74617;DHT22;63123;50.906;4.198;2023-07-13T05:55:45;21.20;65.20
74617;DHT22;63123;50.906;4.198;2023-07-13T05:58:18;21.20;65.20
74617;DHT22;63123;50.906;4.198;2023-07-13T06:00:45;21.20;65.20
74617;DHT22;63123;50.906;4.198;2023-07-13T06:03:11;21.20;65.30
74617;DHT22;63123;50.906;4.198;2023-07-13T06:05:38;21.20;65.30
74617;DHT22;63123;50.906;4.198;2023-07-13T06:08:05;21.20;65.30
74617;DHT22;63123;50.906;4.198;2023-07-13T06:10:35;21.20;65.30
74617;DHT22;63123;50.906;4.198;2023-07-13T06:13:01;21.20;65.30
74617;DHT22;63123;50.906;4.198;2023-07-13T06:15:27;21.20;65.30
74617;DHT22;63123;50.906;4.198;2023-07-13T06:17:53;21.20;65.30
74617;DHT22;63123;50.906;4.198;2023-07-13T06:20:18;21.20;65.30
74617;DHT22;63123;50.906;4.198;2023-07-13T06:22:44;21.20;65.30
74617;DHT22;63123;50.906;4.198;2023-07-13T06:25:09;21.20;65.30
74617;DHT22;63123;50.906;4.198;2023-07-13T06:27:35;21.20;65.30
74617;DHT22;63123;50.906;4.198;2023-07-13T06:30:01;21.20;65.30
74617;DHT22;63123;50.906;4.198;2023-07-13T06:32:27;21.20;65.30
74617;DHT22;63123;50.906;4.198;2023-07-13T06:34:52;21.20;65.30
74617;DHT22;63123;50.906;4.198;2023-07-13T06:37:18;21.20;65.30
74617;DHT22;63123;50.906;4.198;2023-07-13T06:39:44;21.20;65.40
74617;DHT22;63123;50.906;4.198;2023-07-13T06:42:10;21.20;65.40
74617;DHT22;63123;50.906;4.198;2023-07-13T06:44:36;21.10;65.30
74617;DHT22;63123;50.906;4.198;2023-07-13T06:47:01;21.20;65.40
74617;DHT22;63123;50.906;4.198;2023-07-13T06:49:27;21.20;65.30
74617;DHT22;63123;50.906;4.198;2023-07-13T06:51:53;21.20;65.40
74617;DHT22;63123;50.906;4.198;2023-07-13T06:54:18;21.20;65.40
74617;DHT22;63123;50.906;4.198;2023-07-13T06:56:44;21.20;65.40
74617;DHT22;63123;50.906;4.198;2023-07-13T06:59:09;21.20;65.40
74617;DHT22;63123;50.906;4.198;2023-07-13T07:01:35;21.20;65.40
74617;DHT22;63123;50.906;4.198;2023-07-13T07:04:00;21.20;65.50
74617;DHT22;63123;50.906;4.198;2023-07-13T07:06:26;21.20;65.40
74617;DHT22;63123;50.906;4.198;2023-07-13T07:08:52;21.20;65.40
74617;DHT22;63123;50.906;4.198;2023-07-13T07:11:24;21.20;65.40
74617;DHT22;63123;50.906;4.198;2023-07-13T07:13:50;21.20;65.40
74617;DHT22;63123;50.906;4.198;2023-07-13T07:16:17;21.20;65.40
74617;DHT22;63123;50.906;4.198;2023-07-13T07:18:43;21.20;65.40
74617;DHT22;63123;50.906;4.198;2023-07-13T07:21:08;21.20;65.40
74617;DHT22;63123;50.906;4.198;2023-07-13T07:23:34;21.20;65.40
74617;DHT22;63123;50.906;4.198;2023-07-13T07:26:00;21.20;65.40
74617;DHT22;63123;50.906;4.198;2023-07-13T07:28:25;21.20;65.40
74617;DHT22;63123;50.906;4.198;2023-07-13T07:30:55;21.20;65.40
74617;DHT22;63123;50.906;4.198;2023-07-13T07:33:22;21.20;65.40
74617;DHT22;63123;50.906;4.198;2023-07-13T07:35:47;21.20;65.40
74617;DHT22;63123;50.906;4.198;2023-07-13T07:38:13;21.20;66.00
74617;DHT22;63123;50.906;4.198;2023-07-13T07:40:40;21.20;65.40
74617;DHT22;63123;50.906;4.198;2023-07-13T07:43:07;21.20;65.40
74617;DHT22;63123;50.906;4.198;2023-07-13T07:45:33;21.20;65.50
74617;DHT22;63123;50.906;4.198;2023-07-13T07:47:58;21.20;65.50
74617;DHT22;63123;50.906;4.198;2023-07-13T07:50:25;21.20;65.40
74617;DHT22;63123;50.906;4.198;2023-07-13T07:52:51;21.20;65.40
74617;DHT22;63123;50.906;4.198;2023-07-13T07:55:17;21.20;65.40
74617;DHT22;63123;50.906;4.198;2023-07-13T07:57:43;21.20;65.50
74617;DHT22;63123;50.906;4.198;2023-07-13T08:00:09;21.20;65.40
74617;DHT22;63123;50.906;4.198;2023-07-13T08:02:35;21.20;65.50
74617;DHT22;63123;50.906;4.198;2023-07-13T08:05:01;21.20;65.40
74617;DHT22;63123;50.906;4.198;2023-07-13T08:07:26;21.20;65.40
74617;DHT22;63123;50.906;4.198;2023-07-13T08:09:53;21.20;65.40
74617;DHT22;63123;50.906;4.198;2023-07-13T08:12:18;21.20;65.40
74617;DHT22;63123;50.906;4.198;2023-07-13T08:14:44;21.20;65.40
74617;DHT22;63123;50.906;4.198;2023-07-13T08:17:09;21.20;65.40
74617;DHT22;63123;50.906;4.198;2023-07-13T08:19:35;21.20;65.50
74617;DHT22;63123;50.906;4.198;2023-07-13T08:22:00;21.20;65.50
74617;DHT22;63123;50.906;4.198;2023-07-13T08:24:26;21.20;65.40
74617;DHT22;63123;50.906;4.198;2023-07-13T08:26:51;21.20;65.40
74617;DHT22;63123;50.906;4.198;2023-07-13T08:29:18;21.20;65.40
74617;DHT22;63123;50.906;4.198;2023-07-13T08:31:43;21.20;65.40
74617;DHT22;63123;50.906;4.198;2023-07-13T08:34:10;21.20;65.40
74617;DHT22;63123;50.906;4.198;2023-07-13T08:36:35;21.20;65.50
74617;DHT22;63123;50.906;4.198;2023-07-13T08:39:02;21.20;65.40
74617;DHT22;63123;50.906;4.198;2023-07-13T08:41:28;21.20;65.40
74617;DHT22;63123;50.906;4.198;2023-07-13T08:43:59;21.20;65.50
74617;DHT22;63123;50.906;4.198;2023-07-13T08:49:17;21.20;65.50
74617;DHT22;63123;50.906;4.198;2023-07-13T08:51:51;21.20;65.40
74617;DHT22;63123;50.906;4.198;2023-07-13T08:54:30;21.20;65.50
74617;DHT22;63123;50.906;4.198;2023-07-13T08:56:59;21.20;65.40
74617;DHT22;63123;50.906;4.198;2023-07-13T08:59:29;21.30;65.50
74617;DHT22;63123;50.906;4.198;2023-07-13T09:04:58;21.20;65.50
74617;DHT22;63123;50.906;4.198;2023-07-13T09:10:29;21.20;65.40
74617;DHT22;63123;50.906;4.198;2023-07-13T09:15:45;21.20;65.50
74617;DHT22;63123;50.906;4.198;2023-07-13T09:21:16;21.20;65.50
74617;DHT22;63123;50.906;4.198;2023-07-13T09:23:43;21.20;65.50
74617;DHT22;63123;50.906;4.198;2023-07-13T09:26:20;21.20;65.50
74617;DHT22;63123;50.906;4.198;2023-07-13T09:28:50;21.20;65.50
74617;DHT22;63123;50.906;4.198;2023-07-13T09:31:23;21.20;65.50
74617;DHT22;63123;50.906;4.198;2023-07-13T09:33:51;21.20;65.50
74617;DHT22;63123;50.906;4.198;2023-07-13T09:36:24;21.20;65.50
74617;DHT22;63123;50.906;4.198;2023-07-13T09:42:23;21.20;65.50
74617;DHT22;63123;50.906;4.198;2023-07-13T09:44:34;21.20;65.50
74617;DHT22;63123;50.906;4.198;2023-07-13T09:47:00;21.20;65.50
74617;DHT22;63123;50.906;4.198;2023-07-13T09:49:34;21.20;65.50
74617;DHT22;63123;50.906;4.198;2023-07-13T09:52:06;21.20;65.50
74617;DHT22;63123;50.906;4.198;2023-07-13T09:54:36;21.20;65.50
74617;DHT22;63123;50.906;4.198;2023-07-13T09:57:11;21.20;65.50
74617;DHT22;63123;50.906;4.198;2023-07-13T09:59:43;21.20;65.50
74617;DHT22;63123;50.906;4.198;2023-07-13T10:04:46;21.20;65.50
74617;DHT22;63123;50.906;4.198;2023-07-13T10:07:22;21.20;65.50
74617;DHT22;63123;50.906;4.198;2023-07-13T10:09:52;21.20;65.50
74617;DHT22;63123;50.906;4.198;2023-07-13T10:12:19;21.20;65.50
74617;DHT22;63123;50.906;4.198;2023-07-13T10:14:45;21.20;65.50
74617;DHT22;63123;50.906;4.198;2023-07-13T10:17:13;21.20;65.50
74617;DHT22;63123;50.906;4.198;2023-07-13T10:19:42;21.30;65.60
74617;DHT22;63123;50.906;4.198;2023-07-13T10:22:29;21.20;65.50
74617;DHT22;63123;50.906;4.198;2023-07-13T10:24:57;21.30;65.60
74617;DHT22;63123;50.906;4.198;2023-07-13T10:27:33;21.20;65.50
74617;DHT22;63123;50.906;4.198;2023-07-13T10:30:09;21.20;65.60
74617;DHT22;63123;50.906;4.198;2023-07-13T10:32:37;21.20;65.60
74617;DHT22;63123;50.906;4.198;2023-07-13T10:35:03;21.30;65.60
74617;DHT22;63123;50.906;4.198;2023-07-13T10:37:50;21.30;65.60
74617;DHT22;63123;50.906;4.198;2023-07-13T10:40:25;21.30;65.60
74617;DHT22;63123;50.906;4.198;2023-07-13T10:42:54;21.20;65.50
74617;DHT22;63123;50.906;4.198;2023-07-13T10:45:22;21.20;65.50
74617;DHT22;63123;50.906;4.198;2023-07-13T10:47:51;21.20;65.60
74617;DHT22;63123;50.906;4.198;2023-07-13T10:50:27;21.30;65.60
74617;DHT22;63123;50.906;4.198;2023-07-13T10:53:02;21.20;65.50
74617;DHT22;63123;50.906;4.198;2023-07-13T10:56:19;21.20;65.50
74617;DHT22;63123;50.906;4.198;2023-07-13T10:58:42;21.30;65.50
74617;DHT22;63123;50.906;4.198;2023-07-13T11:01:16;21.30;65.60
74617;DHT22;63123;50.906;4.198;2023-07-13T11:04:03;21.30;65.60
74617;DHT22;63123;50.906;4.198;2023-07-13T11:06:38;21.30;65.60
74617;DHT22;63123;50.906;4.198;2023-07-13T11:11:46;21.20;65.50
74617;DHT22;63123;50.906;4.198;2023-07-13T11:14:37;21.30;65.60
74617;DHT22;63123;50.906;4.198;2023-07-13T11:17:24;21.30;65.60
74617;DHT22;63123;50.906;4.198;2023-07-13T11:19:51;21.30;65.60
74617;DHT22;63123;50.906;4.198;2023-07-13T11:22:23;21.30;65.60
74617;DHT22;63123;50.906;4.198;2023-07-13T11:27:52;21.20;65.60
74617;DHT22;63123;50.906;4.198;2023-07-13T11:33:11;21.30;65.60
74617;DHT22;63123;50.906;4.198;2023-07-13T11:35:46;21.20;65.60
74617;DHT22;63123;50.906;4.198;2023-07-13T11:38:20;21.30;65.70
74617;DHT22;63123;50.906;4.198;2023-07-13T11:40:48;21.30;65.70
74617;DHT22;63123;50.906;4.198;2023-07-13T11:43:16;21.30;65.70
74617;DHT22;63123;50.906;4.198;2023-07-13T11:45:43;21.20;65.70
74617;DHT22;63123;50.906;4.198;2023-07-13T11:48:28;21.20;65.70
74617;DHT22;63123;50.906;4.198;2023-07-13T11:50:59;21.30;65.70
74617;DHT22;63123;50.906;4.198;2023-07-13T11:53:28;21.20;65.60
74617;DHT22;63123;50.906;4.198;2023-07-13T11:55:55;21.30;66.40
74617;DHT22;63123;50.906;4.198;2023-07-13T11:58:24;21.30;65.70
74617;DHT22;63123;50.906;4.198;2023-07-13T12:00:51;21.20;65.70
74617;DHT22;63123;50.906;4.198;2023-07-13T12:03:22;21.30;65.70
74617;DHT22;63123;50.906;4.198;2023-07-13T12:06:00;21.30;65.80
74617;DHT22;63123;50.906;4.198;2023-07-13T12:08:27;21.20;65.70
74617;DHT22;63123;50.906;4.198;2023-07-13T12:11:19;21.20;65.70
74617;DHT22;63123;50.906;4.198;2023-07-13T12:13:46;21.20;65.70
74617;DHT22;63123;50.906;4.198;2023-07-13T12:16:28;21.20;65.70
74617;DHT22;63123;50.906;4.198;2023-07-13T12:18:56;21.20;65.70
74617;DHT22;63123;50.906;4.198;2023-07-13T12:21:36;21.30;65.80
74617;DHT22;63123;50.906;4.198;2023-07-13T12:24:03;21.30;65.80
74617;DHT22;63123;50.906;4.198;2023-07-13T12:26:30;21.20;65.70
74617;DHT22;63123;50.906;4.198;2023-07-13T12:28:57;21.30;65.80
74617;DHT22;63123;50.906;4.198;2023-07-13T12:34:07;21.30;65.80
74617;DHT22;63123;50.906;4.198;2023-07-13T12:36:36;21.30;65.80
74617;DHT22;63123;50.906;4.198;2023-07-13T12:39:28;21.30;65.80
74617;DHT22;63123;50.906;4.198;2023-07-13T12:42:25;21.30;65.80
74617;DHT22;63123;50.906;4.198;2023-07-13T12:45:01;21.30;65.80
74617;DHT22;63123;50.906;4.198;2023-07-13T12:47:28;21.30;65.80
74617;DHT22;63123;50.906;4.198;2023-07-13T12:49:58;21.20;65.80
74617;DHT22;63123;50.906;4.198;2023-07-13T12:52:33;21.30;65.80
74617;DHT22;63123;50.906;4.198;2023-07-13T12:55:07;21.30;65.80
74617;DHT22;63123;50.906;4.198;2023-07-13T12:57:59;21.30;65.80
74617;DHT22;63123;50.906;4.198;2023-07-13T13:02:58;21.20;65.80
74617;DHT22;63123;50.906;4.198;2023-07-13T13:05:31;21.30;65.90
74617;DHT22;63123;50.906;4.198;2023-07-13T13:07:57;21.30;65.90
74617;DHT22;63123;50.906;4.198;2023-07-13T13:10:23;21.20;65.80
74617;DHT22;63123;50.906;4.198;2023-07-13T13:12:50;21.20;65.80
74617;DHT22;63123;50.906;4.198;2023-07-13T13:15:16;21.30;65.90
74617;DHT22;63123;50.906;4.198;2023-07-13T13:17:42;21.30;65.90
74617;DHT22;63123;50.906;4.198;2023-07-13T13:20:15;21.30;66.50
74617;DHT22;63123;50.906;4.198;2023-07-13T13:22:41;21.30;65.90
74617;DHT22;63123;50.906;4.198;2023-07-13T13:25:13;21.30;65.90
74617;DHT22;63123;50.906;4.198;2023-07-13T13:27:41;21.30;65.90
74617;DHT22;63123;50.906;4.198;2023-07-13T13:30:11;21.30;65.90
74617;DHT22;63123;50.906;4.198;2023-07-13T13:32:43;21.30;65.90
74617;DHT22;63123;50.906;4.198;2023-07-13T13:35:19;21.30;65.90
74617;DHT22;63123;50.906;4.198;2023-07-13T13:37:46;21.30;65.90
74617;DHT22;63123;50.906;4.198;2023-07-13T13:40:21;21.30;65.90
74617;DHT22;63123;50.906;4.198;2023-07-13T13:42:48;21.30;65.90
74617;DHT22;63123;50.906;4.198;2023-07-13T13:45:14;21.30;65.90
74617;DHT22;63123;50.906;4.198;2023-07-13T13:47:43;21.30;65.90
74617;DHT22;63123;50.906;4.198;2023-07-13T13:50:18;21.30;65.90
74617;DHT22;63123;50.906;4.198;2023-07-13T13:52:45;21.30;65.90
74617;DHT22;63123;50.906;4.198;2023-07-13T13:55:21;21.30;65.90
74617;DHT22;63123;50.906;4.198;2023-07-13T13:57:49;21.30;65.90
74617;DHT22;63123;50.906;4.198;2023-07-13T14:00:16;21.30;65.90
74617;DHT22;63123;50.906;4.198;2023-07-13T14:02:45;21.30;65.90
74617;DHT22;63123;50.906;4.198;2023-07-13T14:05:21;21.30;65.90
74617;DHT22;63123;50.906;4.198;2023-07-13T14:07:47;21.30;65.90
74617;DHT22;63123;50.906;4.198;2023-07-13T14:10:15;21.30;65.90
74617;DHT22;63123;50.906;4.198;2023-07-13T14:12:44;21.30;66.50
74617;DHT22;63123;50.906;4.198;2023-07-13T14:17:45;21.30;65.90
74617;DHT22;63123;50.906;4.198;2023-07-13T14:20:15;21.30;65.80
74617;DHT22;63123;50.906;4.198;2023-07-13T14:22:41;21.30;65.90
74617;DHT22;63123;50.906;4.198;2023-07-13T14:25:11;21.30;65.90
74617;DHT22;63123;50.906;4.198;2023-07-13T14:27:38;21.30;65.80
74617;DHT22;63123;50.906;4.198;2023-07-13T14:30:15;21.30;65.90
74617;DHT22;63123;50.906;4.198;2023-07-13T14:32:41;21.30;65.90
74617;DHT22;63123;50.906;4.198;2023-07-13T14:35:14;21.30;65.80
74617;DHT22;63123;50.906;4.198;2023-07-13T14:37:41;21.30;65.80
74617;DHT22;63123;50.906;4.198;2023-07-13T14:40:23;21.30;65.80
74617;DHT22;63123;50.906;4.198;2023-07-13T14:42:50;21.30;65.80
74617;DHT22;63123;50.906;4.198;2023-07-13T14:45:17;21.30;65.80
74617;DHT22;63123;50.906;4.198;2023-07-13T14:47:44;21.30;65.80
74617;DHT22;63123;50.906;4.198;2023-07-13T14:50:20;21.30;65.80
74617;DHT22;63123;50.906;4.198;2023-07-13T14:52:47;21.30;65.80
74617;DHT22;63123;50.906;4.198;2023-07-13T14:55:15;21.30;65.80
74617;DHT22;63123;50.906;4.198;2023-07-13T14:57:41;21.30;65.80
74617;DHT22;63123;50.906;4.198;2023-07-13T15:00:23;21.30;65.80
74617;DHT22;63123;50.906;4.198;2023-07-13T15:02:51;21.30;65.80
74617;DHT22;63123;50.906;4.198;2023-07-13T15:05:22;21.30;65.80
74617;DHT22;63123;50.906;4.198;2023-07-13T15:07:50;21.30;65.80
74617;DHT22;63123;50.906;4.198;2023-07-13T15:10:21;21.30;65.70
74617;DHT22;63123;50.906;4.198;2023-07-13T15:12:47;21.30;65.70
74617;DHT22;63123;50.906;4.198;2023-07-13T15:15:13;21.30;65.70
74617;DHT22;63123;50.906;4.198;2023-07-13T15:17:41;21.30;65.70
74617;DHT22;63123;50.906;4.198;2023-07-13T15:20:22;21.30;65.60
74617;DHT22;63123;50.906;4.198;2023-07-13T15:22:49;21.30;65.50
74617;DHT22;63123;50.906;4.198;2023-07-13T15:25:18;21.30;65.60
74617;DHT22;63123;50.906;4.198;2023-07-13T15:27:44;21.30;65.60
74617;DHT22;63123;50.906;4.198;2023-07-13T15:30:10;21.30;65.60
74617;DHT22;63123;50.906;4.198;2023-07-13T15:32:36;21.30;65.50
74617;DHT22;63123;50.906;4.198;2023-07-13T15:35:02;21.30;65.40
74617;DHT22;63123;50.906;4.198;2023-07-13T15:37:27;21.30;65.50
74617;DHT22;63123;50.906;4.198;2023-07-13T15:39:53;21.30;65.50
74617;DHT22;63123;50.906;4.198;2023-07-13T15:42:20;21.30;65.50
74617;DHT22;63123;50.906;4.198;2023-07-13T15:44:47;21.30;65.50
74617;DHT22;63123;50.906;4.198;2023-07-13T15:47:13;21.30;65.40
74617;DHT22;63123;50.906;4.198;2023-07-13T15:49:40;21.30;65.30
74617;DHT22;63123;50.906;4.198;2023-07-13T15:52:22;21.30;65.10
74617;DHT22;63123;50.906;4.198;2023-07-13T15:54:48;21.30;65.20
74617;DHT22;63123;50.906;4.198;2023-07-13T15:57:14;21.30;65.20
74617;DHT22;63123;50.906;4.198;2023-07-13T15:59:41;21.30;65.20
74617;DHT22;63123;50.906;4.198;2023-07-13T16:02:19;21.30;65.10
74617;DHT22;63123;50.906;4.198;2023-07-13T16:04:46;21.30;65.10
74617;DHT22;63123;50.906;4.198;2023-07-13T16:07:14;21.30;65.00
74617;DHT22;63123;50.906;4.198;2023-07-13T16:09:44;21.30;65.00
74617;DHT22;63123;50.906;4.198;2023-07-13T16:12:14;21.30;64.90
74617;DHT22;63123;50.906;4.198;2023-07-13T16:14:40;21.30;64.80
74617;DHT22;63123;50.906;4.198;2023-07-13T16:17:13;21.30;64.80